Time;durP1;ratioP1;P1;durP2;ratioP2;P2;SDS_P1;SDS_P2;PMS_P1;PMS_P2;Temp;Humidity;BMP_temperature;BMP_pressure;BME280_temperature;BME280_humidity;BME280_pressure;Samples;Min_cycle;Max_cycle;Signal;HPM_P1;HPM_P2
2020/12/26 00:02:51;;;;;;;5.20;3.55;;;23.00;54.30;;;;;;6226143;28;20029;-65
2020/12/26 00:05:51;;;;;;;7.43;3.70;;;23.00;54.30;;;;;;6225182;28;20026;-68
2020/12/26 00:08:53;;;;;;;6.22;3.58;;;23.00;54.20;;;;;;6226029;28;20410;-68
2020/12/26 00:11:53;;;;;;;6.18;3.80;;;23.00;54.10;;;;;;6224840;28;20087;-66
2020/12/26 00:14:54;;;;;;;6.20;3.60;;;23.00;54.00;;;;;;6225957;28;20038;-67
2020/12/26 00:17:55;;;;;;;6.43;3.67;;;23.00;54.00;;;;;;6225750;28;20052;-67
2020/12/26 00:20:55;;;;;;;5.43;3.58;;;23.10;54.00;;;;;;6225841;28;20026;-67
2020/12/26 00:23:56;;;;;;;4.80;3.38;;;23.10;53.90;;;;;;6225788;28;20041;-67
2020/12/26 00:26:57;;;;;;;5.18;3.28;;;23.10;53.80;;;;;;6225760;28;20479;-67
2020/12/26 00:29:57;;;;;;;5.83;3.90;;;23.10;53.80;;;;;;6225463;28;20022;-67
2020/12/26 00:32:58;;;;;;;4.97;3.63;;;23.10;53.70;;;;;;6225871;28;20515;-67
2020/12/26 00:36:01;;;;;;;5.60;3.67;;;23.10;53.70;;;;;;6225333;28;20053;-68
2020/12/26 00:39:01;;;;;;;6.10;3.55;;;23.10;53.60;;;;;;6225096;28;20093;-67
2020/12/26 00:42:02;;;;;;;5.47;2.80;;;23.10;53.60;;;;;;6225324;28;20045;-67
2020/12/26 00:45:02;;;;;;;4.47;3.17;;;23.10;53.50;;;;;;6225558;28;20030;-67
2020/12/26 00:48:03;;;;;;;5.43;3.17;;;23.20;53.50;;;;;;6225101;28;20052;-67
2020/12/26 00:51:03;;;;;;;5.43;3.67;;;23.10;53.40;;;;;;6225325;28;20033;-66
2020/12/26 00:54:04;;;;;;;4.10;3.00;;;23.10;53.40;;;;;;6225370;28;20025;-67
2020/12/26 00:57:05;;;;;;;4.20;2.90;;;23.20;53.40;;;;;;6223717;28;20093;-67
2020/12/26 01:00:05;;;;;;;6.90;3.50;;;23.20;53.30;;;;;;6224804;28;20034;-66
2020/12/26 01:03:06;;;;;;;5.05;3.28;;;23.20;53.30;;;;;;6224880;28;20380;-67
2020/12/26 01:06:12;;;;;;;5.13;3.13;;;23.20;53.20;;;;;;6223751;28;20022;-67
2020/12/26 01:09:13;;;;;;;4.25;2.90;;;23.20;53.20;;;;;;6224771;28;20108;-68
2020/12/26 01:12:13;;;;;;;5.03;3.47;;;23.20;53.10;;;;;;6223603;28;20356;-68
2020/12/26 01:15:14;;;;;;;5.00;3.00;;;23.20;53.10;;;;;;6224773;28;20033;-67
2020/12/26 01:18:15;;;;;;;3.90;2.80;;;23.20;53.10;;;;;;6224476;28;20040;-68
2020/12/26 01:21:15;;;;;;;4.73;2.80;;;23.30;53.00;;;;;;6224664;28;20440;-68
2020/12/26 01:24:17;;;;;;;3.83;2.93;;;23.20;52.90;;;;;;6224398;28;20387;-68
2020/12/26 01:27:18;;;;;;;;;;;23.20;52.90;;;;;;6224614;28;20049;-67
2020/12/26 01:30:18;;;;;;;4.78;3.20;;;23.30;52.90;;;;;;6224500;28;19912;-67
2020/12/26 01:33:19;;;;;;;6.57;3.47;;;23.20;52.80;;;;;;6223047;28;20028;-66
2020/12/26 01:36:19;;;;;;;5.13;3.07;;;23.30;52.80;;;;;;6223994;28;20018;-66
2020/12/26 01:39:20;;;;;;;6.73;3.20;;;23.20;52.70;;;;;;6223633;28;20404;-66
2020/12/26 01:42:21;;;;;;;4.35;2.95;;;23.30;52.70;;;;;;6222732;28;20207;-68
2020/12/26 01:45:22;;;;;;;4.23;3.03;;;23.30;52.60;;;;;;6224100;28;20034;-67
2020/12/26 01:48:22;;;;;;;5.27;3.20;;;23.30;52.60;;;;;;6223269;28;20049;-67
2020/12/26 01:51:29;;;;;;;3.37;2.73;;;23.30;52.60;;;;;;6222551;28;20373;-67
2020/12/26 01:54:30;;;;;;;4.13;3.08;;;23.30;52.50;;;;;;6223532;28;20017;-66
2020/12/26 01:57:34;;;;;;;5.87;2.90;;;23.30;52.50;;;;;;6223482;28;20025;-67
2020/12/26 02:00:35;;;;;;;7.43;3.50;;;23.30;52.40;;;;;;6223834;28;20030;-67
2020/12/26 02:03:36;;;;;;;7.70;3.20;;;23.30;52.40;;;;;;6223790;28;20037;-66
2020/12/26 02:06:43;;;;;;;6.10;3.28;;;23.30;52.30;;;;;;6223847;28;20058;-66
2020/12/26 02:09:45;;;;;;;4.85;3.08;;;23.30;52.30;;;;;;6222006;28;20030;-67
2020/12/26 02:12:47;;;;;;;4.43;2.85;;;23.30;52.20;;;;;;6206026;28;20025;-67
2020/12/26 02:16:03;;;;;;;4.57;2.83;;;23.30;52.20;;;;;;6223220;28;20087;-67
2020/12/26 02:19:04;;;;;;;5.18;2.67;;;23.30;52.20;;;;;;6223451;28;20037;-68
2020/12/26 02:22:04;;;;;;;4.27;2.90;;;23.30;52.10;;;;;;6223118;28;20037;-68
2020/12/26 02:25:05;;;;;;;5.40;3.10;;;23.30;52.00;;;;;;6221944;28;20022;-68
2020/12/26 02:28:06;;;;;;;5.50;3.00;;;23.30;52.00;;;;;;6223055;28;20032;-67
2020/12/26 02:31:06;;;;;;;4.63;2.83;;;23.30;51.90;;;;;;6223377;28;20047;-66
2020/12/26 02:34:07;;;;;;;5.70;3.13;;;23.30;51.90;;;;;;6223059;28;20029;-66
2020/12/26 02:37:08;;;;;;;4.73;2.73;;;23.30;51.80;;;;;;6223017;28;20022;-67
2020/12/26 02:40:08;;;;;;;4.23;2.77;;;23.30;51.80;;;;;;6223133;28;20053;-67
2020/12/26 02:43:19;;;;;;;4.43;2.77;;;23.30;51.80;;;;;;6222973;28;20022;-68
2020/12/26 02:46:20;;;;;;;7.32;3.17;;;23.30;51.70;;;;;;6222012;28;20029;-66
2020/12/26 02:49:20;;;;;;;3.20;2.63;;;23.30;51.70;;;;;;6221923;28;20026;-67
2020/12/26 02:52:21;;;;;;;5.13;2.70;;;23.30;51.70;;;;;;6222838;28;20109;-67
2020/12/26 02:55:21;;;;;;;6.07;2.77;;;23.30;51.70;;;;;;6222668;28;20030;-67
2020/12/26 02:58:22;;;;;;;4.07;2.53;;;23.30;51.70;;;;;;6222670;28;20464;-66
2020/12/26 03:01:22;;;;;;;5.93;3.00;;;23.30;51.60;;;;;;6226719;28;20062;-66
2020/12/26 03:04:23;;;;;;;6.27;2.90;;;23.30;51.60;;;;;;6227692;28;20034;-68
2020/12/26 03:07:24;;;;;;;3.90;2.60;;;23.30;51.50;;;;;;6227435;28;20464;-67
2020/12/26 03:10:24;;;;;;;3.77;3.00;;;23.30;51.50;;;;;;6227461;28;20092;-66
2020/12/26 03:13:25;;;;;;;4.33;2.60;;;23.30;51.50;;;;;;6226165;28;20101;-67
2020/12/26 03:16:25;;;;;;;3.70;2.63;;;23.30;51.40;;;;;;6227597;28;20037;-67
2020/12/26 03:19:26;;;;;;;3.58;2.45;;;23.30;51.50;;;;;;6227197;28;20034;-67
2020/12/26 03:22:30;;;;;;;4.65;2.60;;;23.30;51.40;;;;;;6227143;28;20384;-67
2020/12/26 03:25:32;;;;;;;6.32;3.13;;;23.30;51.40;;;;;;6227083;28;20021;-67
2020/12/26 03:28:33;;;;;;;3.53;2.33;;;23.30;51.40;;;;;;6226912;28;20444;-66
2020/12/26 03:31:34;;;;;;;5.37;2.63;;;23.30;51.40;;;;;;6227266;28;20021;-67
2020/12/26 03:34:34;;;;;;;3.37;2.47;;;23.30;51.30;;;;;;6226782;28;20022;-67
2020/12/26 03:37:35;;;;;;;5.47;2.80;;;23.30;51.30;;;;;;6226546;28;20483;-68
2020/12/26 03:40:36;;;;;;;4.50;2.42;;;23.30;51.30;;;;;;6226923;28;20045;-68
2020/12/26 03:43:37;;;;;;;3.37;2.60;;;23.30;51.30;;;;;;6227013;28;20089;-66
2020/12/26 03:46:37;;;;;;;5.10;2.67;;;23.30;51.30;;;;;;6226987;28;20030;-67
2020/12/26 03:49:38;;;;;;;3.57;2.70;;;23.30;51.30;;;;;;6225338;28;20026;-67
2020/12/26 03:52:38;;;;;;;3.33;3.00;;;23.30;51.20;;;;;;6226578;28;20349;-68
2020/12/26 03:55:40;;;;;;;3.63;2.63;;;23.30;51.20;;;;;;6226230;28;20049;-66
2020/12/26 03:58:40;;;;;;;2.97;2.40;;;23.30;51.20;;;;;;6226268;28;20025;-67
2020/12/26 04:01:41;;;;;;;4.30;2.43;;;23.30;51.10;;;;;;6226273;28;20061;-68
2020/12/26 04:04:42;;;;;;;4.17;2.73;;;23.30;51.10;;;;;;6226483;28;20021;-67
2020/12/26 04:07:42;;;;;;;3.10;2.27;;;23.30;51.10;;;;;;6226161;28;20034;-67
2020/12/26 04:10:43;;;;;;;6.20;2.60;;;23.30;51.10;;;;;;6225672;28;20471;-68
2020/12/26 04:13:43;;;;;;;3.03;2.40;;;23.30;51.00;;;;;;6226119;28;20014;-67
2020/12/26 04:16:44;;;;;;;3.27;2.27;;;23.30;51.00;;;;;;6225983;28;20069;-67
2020/12/26 04:19:44;;;;;;;3.97;2.27;;;23.30;51.00;;;;;;6225918;28;20041;-67
2020/12/26 04:22:45;;;;;;;5.13;2.20;;;23.30;50.90;;;;;;6224831;28;20290;-66
2020/12/26 04:25:45;;;;;;;3.10;2.33;;;23.30;50.90;;;;;;6225898;28;20049;-66
2020/12/26 04:28:47;;;;;;;3.87;2.67;;;23.30;50.90;;;;;;6225666;28;20030;-66
2020/12/26 04:31:49;;;;;;;3.72;2.63;;;23.30;50.90;;;;;;6225565;28;20021;-67
2020/12/26 04:34:49;;;;;;;5.32;2.40;;;23.30;50.90;;;;;;6225452;28;20048;-66
2020/12/26 04:37:50;;;;;;;5.03;2.60;;;23.20;50.80;;;;;;6225033;28;20130;-67
2020/12/26 04:40:51;;;;;;;4.57;2.73;;;23.30;50.80;;;;;;6225536;28;20475;-67
2020/12/26 04:43:55;;;;;;;5.75;2.70;;;23.30;50.80;;;;;;6224435;28;20033;-67
2020/12/26 04:46:56;;;;;;;3.28;2.28;;;23.20;50.80;;;;;;6224146;28;20018;-66
2020/12/26 04:49:58;;;;;;;3.30;2.40;;;23.30;50.80;;;;;;6223883;28;20025;-68
2020/12/26 04:53:01;;;;;;;5.18;2.63;;;23.30;50.80;;;;;;6225475;28;20018;-67
2020/12/26 04:56:02;;;;;;;2.80;2.40;;;23.20;50.70;;;;;;6224937;28;20128;-66
2020/12/26 04:59:03;;;;;;;2.30;2.10;;;23.30;50.70;;;;;;6225225;28;20048;-68
2020/12/26 05:02:03;;;;;;;2.97;2.40;;;23.20;50.70;;;;;;6223908;28;20449;-67
2020/12/26 05:05:04;;;;;;;2.30;2.10;;;23.20;50.70;;;;;;6223855;28;20061;-67
2020/12/26 05:08:09;;;;;;;3.17;2.30;;;23.20;50.70;;;;;;6224740;28;20084;-67
2020/12/26 05:11:09;;;;;;;3.05;2.15;;;23.20;50.70;;;;;;6224819;28;20038;-66
2020/12/26 05:14:15;;;;;;;2.93;2.23;;;23.30;50.80;;;;;;6224957;28;20453;-66
2020/12/26 05:17:16;;;;;;;4.40;2.20;;;23.20;50.70;;;;;;6223609;28;20081;-66
2020/12/26 05:20:16;;;;;;;3.50;2.30;;;23.30;50.70;;;;;;6224734;28;20375;-67
2020/12/26 05:23:18;;;;;;;3.93;2.20;;;23.20;50.70;;;;;;6223561;28;20026;-67
2020/12/26 05:26:19;;;;;;;4.38;2.42;;;23.20;50.70;;;;;;6223315;28;20029;-67
2020/12/26 05:29:23;;;;;;;4.03;2.50;;;23.30;50.70;;;;;;6223268;28;20034;-66
2020/12/26 05:32:24;;;;;;;2.65;2.10;;;23.20;50.70;;;;;;6224587;28;20057;-66
2020/12/26 05:35:34;;;;;;;3.67;2.73;;;23.20;50.70;;;;;;6223033;28;20434;-67
2020/12/26 05:38:34;;;;;;;4.13;2.67;;;23.20;50.70;;;;;;6223188;28;20045;-67
2020/12/26 05:41:42;;;;;;;3.73;2.30;;;23.20;50.70;;;;;;6224418;28;20060;-67
2020/12/26 05:44:43;;;;;;;3.50;2.17;;;23.20;50.60;;;;;;6222962;28;20022;-66
2020/12/26 05:47:43;;;;;;;3.70;2.47;;;23.20;50.70;;;;;;6224192;28;20022;-67
2020/12/26 05:50:44;;;;;;;3.43;2.30;;;23.20;50.70;;;;;;6224266;28;20026;-67
2020/12/26 05:53:45;;;;;;;2.45;2.20;;;23.20;50.70;;;;;;6224380;28;20068;-67
2020/12/26 05:56:45;;;;;;;2.67;2.43;;;23.20;50.70;;;;;;6222557;28;20018;-66
2020/12/26 05:59:47;;;;;;;2.60;2.40;;;23.20;50.70;;;;;;6223721;28;20088;-67
2020/12/26 06:02:48;;;;;;;;;;;23.20;50.60;;;;;;6224333;28;20025;-67
2020/12/26 06:05:49;;;;;;;3.50;2.30;;;23.20;50.60;;;;;;6223629;28;19913;-67
2020/12/26 06:08:49;;;;;;;4.53;2.40;;;23.20;50.60;;;;;;6222370;28;20018;-67
2020/12/26 06:11:50;;;;;;;3.30;2.57;;;23.20;50.70;;;;;;6222548;28;20025;-66
2020/12/26 06:14:51;;;;;;;2.63;2.30;;;23.20;50.70;;;;;;6222316;28;20464;-68
2020/12/26 06:17:51;;;;;;;3.43;2.30;;;23.20;50.60;;;;;;6223263;28;20365;-68
2020/12/26 06:20:52;;;;;;;4.17;2.20;;;23.20;50.60;;;;;;6222557;28;20030;-68
2020/12/26 06:23:53;;;;;;;3.07;2.00;;;23.20;50.60;;;;;;6223625;28;20022;-67
2020/12/26 06:26:54;;;;;;;7.03;2.28;;;23.20;50.60;;;;;;6223500;28;20453;-69
2020/12/26 06:29:54;;;;;;;8.25;3.28;;;23.20;50.90;;;;;;6221797;28;20014;-65
2020/12/26 06:32:56;;;;;;;10.02;3.50;;;23.20;51.20;;;;;;6222360;28;20101;-66
2020/12/26 06:35:57;;;;;;;14.40;4.00;;;23.20;51.50;;;;;;6225678;28;20136;-68
2020/12/26 06:38:58;;;;;;;22.15;4.35;;;23.20;51.80;;;;;;6236170;28;20079;-68
2020/12/26 06:42:13;;;;;;;9.23;4.27;;;23.20;51.90;;;;;;6226608;28;20021;-66
2020/12/26 06:45:29;;;;;;;13.65;3.40;;;23.10;52.10;;;;;;6230567;28;20029;-67
2020/12/26 06:48:33;;;;;;;21.27;4.43;;;23.10;52.30;;;;;;6221670;28;20033;-65
2020/12/26 06:51:38;;;;;;;11.57;3.78;;;23.10;53.10;;;;;;6235267;28;20444;-65
2020/12/26 06:54:39;;;;;;;16.73;4.47;;;23.20;52.70;;;;;;6223090;28;20018;-66
2020/12/26 06:57:40;;;;;;;;;;;23.10;53.00;;;;;;6222051;28;20030;-66
2020/12/26 07:00:40;;;;;;;16.25;4.35;;;23.10;53.10;;;;;;6222700;28;19934;-67
2020/12/26 07:03:41;;;;;;;10.17;3.20;;;23.10;53.20;;;;;;6222490;28;20441;-70
2020/12/26 07:06:59;;;;;;;13.23;4.00;;;23.10;53.20;;;;;;6223072;28;20067;-67
2020/12/26 07:10:00;;;;;;;17.23;3.85;;;23.20;53.20;;;;;;6236784;28;20026;-67
2020/12/26 07:13:01;;;;;;;16.07;3.83;;;23.20;53.20;;;;;;6222514;28;20025;-66
2020/12/26 07:16:01;;;;;;;11.90;3.87;;;23.10;53.10;;;;;;6222411;28;20030;-66
2020/12/26 07:19:23;;;;;;;14.70;3.40;;;23.20;53.10;;;;;;6221154;28;20088;-69
2020/12/26 07:22:30;;;;;;;18.50;4.05;;;23.20;53.10;;;;;;6222184;28;20032;-71
2020/12/26 07:25:31;;;;;;;22.05;4.80;;;23.20;53.20;;;;;;6221297;28;20471;-67
2020/12/26 07:28:40;;;;;;;26.37;4.60;;;23.20;53.10;;;;;;6221943;28;20026;-67
2020/12/26 07:31:47;;;;;;;23.75;4.45;;;23.20;53.10;;;;;;6220616;28;20025;-67
2020/12/26 07:34:47;;;;;;;16.80;4.70;;;23.20;53.20;;;;;;6222326;28;20022;-67
2020/12/26 07:37:51;;;;;;;18.10;4.97;;;23.20;53.30;;;;;;6221576;28;20050;-67
2020/12/26 07:40:51;;;;;;;20.52;4.80;;;23.30;53.60;;;;;;6214248;28;20029;-67
2020/12/26 07:43:52;;;;;;;18.17;4.70;;;23.30;53.60;;;;;;6220421;28;20507;-68
2020/12/26 07:46:55;;;;;;;12.00;4.10;;;23.20;51.00;;;;;;6223333;28;20113;-65
2020/12/26 07:49:59;;;;;;;16.85;4.40;;;23.10;50.40;;;;;;6225007;28;20025;-65
2020/12/26 07:53:01;;;;;;;12.18;4.60;;;23.10;50.80;;;;;;6225436;28;20033;-65
2020/12/26 07:56:02;;;;;;;20.23;4.70;;;23.10;51.50;;;;;;6226569;28;20063;-64
2020/12/26 08:01:39;;;;;;;4.15;3.75;;;21.50;33.70;;;;;;6421318;27;20352;-80
2020/12/26 08:04:44;;;;;;;4.82;4.30;;;15.00;38.00;;;;;;6402883;27;20033;-78
2020/12/26 08:07:44;;;;;;;4.38;3.67;;;10.70;47.00;;;;;;6402432;27;20056;-77
2020/12/26 08:10:45;;;;;;;6.28;5.07;;;7.90;54.80;;;;;;6402611;27;20018;-76
2020/12/26 08:14:00;;;;;;;7.43;5.22;;;6.00;61.40;;;;;;6385314;27;20032;-81
2020/12/26 08:17:01;;;;;;;6.78;4.47;;;4.60;67.50;;;;;;6420989;27;20025;-77
2020/12/26 08:20:01;;;;;;;10.77;6.40;;;4.70;72.20;;;;;;6402164;27;20038;-77
2020/12/26 08:23:02;;;;;;;5.93;4.88;;;3.80;75.40;;;;;;6385874;27;20067;-76
2020/12/26 08:26:03;;;;;;;7.07;4.93;;;3.10;78.40;;;;;;6402437;27;20023;-77
2020/12/26 08:29:06;;;;;;;7.93;5.82;;;2.10;80.50;;;;;;6420715;27;20022;-75
2020/12/26 08:32:11;;;;;;;6.88;5.68;;;3.30;82.80;;;;;;6384871;27;20058;-75
2020/12/26 08:35:12;;;;;;;22.63;7.80;;;2.00;84.50;;;;;;6384881;27;20793;-75
2020/12/26 08:38:18;;;;;;;27.52;9.55;;;2.80;90.30;;;;;;6401954;27;20030;-75
2020/12/26 08:41:19;;;;;;;17.67;9.75;;;2.90;90.40;;;;;;6385658;27;20460;-76
2020/12/26 08:44:19;;;;;;;18.23;11.73;;;2.80;89.00;;;;;;6367768;27;20033;-78
2020/12/26 08:47:30;;;;;;;10.57;8.05;;;3.00;86.30;;;;;;6401771;27;20445;-76
2020/12/26 08:50:30;;;;;;;9.75;6.13;;;3.10;86.00;;;;;;6401742;27;20444;-77
2020/12/26 08:53:34;;;;;;;7.75;5.95;;;2.90;85.80;;;;;;6384282;27;20059;-76
2020/12/26 08:56:36;;;;;;;8.27;6.07;;;1.70;86.60;;;;;;6370342;27;20071;-80
2020/12/26 08:59:36;;;;;;;8.50;7.17;;;1.80;88.00;;;;;;6341476;27;20158;-77
2020/12/26 09:02:37;;;;;;;13.13;7.35;;;1.70;88.60;;;;;;6375622;27;20266;-77
2020/12/26 09:05:37;;;;;;;10.05;6.65;;;1.50;88.60;;;;;;6341440;27;20019;-78
2020/12/26 09:08:38;;;;;;;9.15;6.45;;;2.90;89.80;;;;;;6358739;27;20035;-77
2020/12/26 09:11:39;;;;;;;12.80;8.68;;;2.10;88.40;;;;;;6349294;27;20019;-79
2020/12/26 09:14:39;;;;;;;12.40;9.23;;;1.80;87.20;;;;;;6358832;27;20407;-76
2020/12/26 09:17:40;;;;;;;10.90;7.38;;;1.60;97.10;;;;;;6358287;27;20031;-74
2020/12/26 09:20:47;;;;;;;9.63;6.90;;;1.90;99.90;;;;;;6358199;27;20380;-76
2020/12/26 09:23:51;;;;;;;12.10;7.65;;;3.30;87.00;;;;;;6341241;27;20023;-77
2020/12/26 09:26:52;;;;;;;9.48;7.78;;;2.00;99.90;;;;;;6323223;28;20027;-75
2020/12/26 09:30:04;;;;;;;14.35;8.80;;;1.70;94.70;;;;;;6332505;28;20063;-76
2020/12/26 09:33:04;;;;;;;10.80;6.60;;;1.90;99.10;;;;;;6298855;28;20019;-75
2020/12/26 09:36:05;;;;;;;9.30;7.22;;;2.70;94.10;;;;;;6315608;28;20485;-78
2020/12/26 09:39:06;;;;;;;14.43;7.60;;;2.40;85.40;;;;;;6315420;28;20027;-76
2020/12/26 09:42:09;;;;;;;11.02;6.65;;;2.00;84.40;;;;;;6350414;28;20019;-75
2020/12/26 09:45:10;;;;;;;6.65;5.45;;;2.20;83.10;;;;;;6332223;28;20514;-76
2020/12/26 09:48:10;;;;;;;12.30;7.45;;;2.00;83.40;;;;;;6350342;28;20024;-74
2020/12/26 09:51:21;;;;;;;16.20;7.38;;;2.90;84.50;;;;;;6350597;28;20411;-76
2020/12/26 09:54:21;;;;;;;10.45;7.68;;;2.40;85.10;;;;;;6332190;28;20076;-75
2020/12/26 09:57:22;;;;;;;11.15;7.43;;;2.30;86.60;;;;;;6350267;28;20347;-76
2020/12/26 10:00:22;;;;;;;13.80;9.38;;;2.20;86.80;;;;;;6349665;28;20100;-75
2020/12/26 10:03:34;;;;;;;15.95;10.40;;;2.40;87.60;;;;;;6332013;28;20449;-76
2020/12/26 10:06:35;;;;;;;10.95;8.35;;;2.50;90.40;;;;;;6350227;28;20024;-75
2020/12/26 10:09:35;;;;;;;20.17;11.25;;;3.60;89.20;;;;;;6349809;28;20096;-77
2020/12/26 10:12:37;;;;;;;17.05;10.85;;;2.40;87.10;;;;;;6349813;28;20024;-75
2020/12/26 10:15:38;;;;;;;22.83;19.38;;;3.60;87.40;;;;;;6350019;28;20107;-76
2020/12/26 10:18:38;;;;;;;46.85;29.70;;;3.10;87.10;;;;;;6349543;28;20376;-76
2020/12/26 10:21:39;;;;;;;21.52;14.55;;;2.40;86.00;;;;;;6331343;28;20020;-76
2020/12/26 10:24:40;;;;;;;37.88;25.15;;;3.50;86.70;;;;;;6348532;28;20030;-75
2020/12/26 10:27:40;;;;;;;8.93;7.07;;;3.50;86.20;;;;;;6331634;28;20061;-76
2020/12/26 10:30:41;;;;;;;14.77;8.90;;;3.40;86.50;;;;;;6349125;28;20396;-76
2020/12/26 10:33:43;;;;;;;10.18;7.38;;;2.90;85.00;;;;;;6331171;28;20015;-74
2020/12/26 10:36:43;;;;;;;9.52;7.03;;;3.80;84.20;;;;;;6342539;27;20024;-76
2020/12/26 10:39:45;;;;;;;7.20;5.75;;;3.50;83.70;;;;;;6354185;27;20055;-75
2020/12/26 10:42:45;;;;;;;10.27;6.57;;;3.40;82.10;;;;;;6349133;28;20030;-74
2020/12/26 10:45:46;;;;;;;7.68;6.75;;;3.00;82.20;;;;;;6349646;27;20027;-74
2020/12/26 10:48:47;;;;;;;10.63;7.38;;;4.50;82.70;;;;;;6374130;27;20137;-74
2020/12/26 10:51:48;;;;;;;8.73;6.25;;;3.00;82.30;;;;;;6361713;27;20468;-74
2020/12/26 10:54:49;;;;;;;13.65;7.20;;;3.50;82.40;;;;;;6348619;28;20016;-74
2020/12/26 10:57:51;;;;;;;9.98;6.53;;;3.30;81.60;;;;;;6348543;28;20024;-76
2020/12/26 11:00:52;;;;;;;10.55;6.28;;;3.00;93.60;;;;;;6286288;28;20049;-74
2020/12/26 11:03:52;;;;;;;8.18;6.32;;;3.70;81.70;;;;;;6311635;28;20472;-75
2020/12/26 11:06:53;;;;;;;12.80;7.43;;;3.20;83.40;;;;;;6321836;28;20028;-74
2020/12/26 11:09:54;;;;;;;14.18;6.90;;;3.50;81.80;;;;;;6321594;28;20374;-75
2020/12/26 11:12:54;;;;;;;13.55;7.68;;;3.50;83.70;;;;;;6287711;28;20081;-74
2020/12/26 11:15:55;;;;;;;9.63;7.03;;;4.20;80.80;;;;;;6316533;28;20028;-74
2020/12/26 11:18:57;;;;;;;11.20;6.78;;;3.30;81.00;;;;;;6320651;28;20355;-75
2020/12/26 11:21:58;;;;;;;9.02;6.72;;;3.40;80.40;;;;;;6321536;28;20042;-76
2020/12/26 11:24:59;;;;;;;11.30;6.90;;;4.00;85.10;;;;;;6298732;28;20021;-75
2020/12/26 11:27:59;;;;;;;7.93;6.40;;;3.60;81.70;;;;;;6322700;28;20024;-74
2020/12/26 11:31:00;;;;;;;11.05;8.50;;;3.70;80.80;;;;;;6321525;28;20647;-74
2020/12/26 11:34:00;;;;;;;13.43;7.25;;;4.30;79.30;;;;;;6320777;28;20024;-75
2020/12/26 11:37:01;;;;;;;12.85;6.95;;;3.90;79.70;;;;;;6321200;28;20383;-76
2020/12/26 11:40:02;;;;;;;10.20;6.93;;;3.80;76.40;;;;;;6321061;28;20119;-76
2020/12/26 11:43:04;;;;;;;10.15;6.65;;;4.10;76.70;;;;;;6321185;28;20461;-77
2020/12/26 11:46:05;;;;;;;10.32;6.85;;;4.00;77.30;;;;;;6321184;28;20060;-76
2020/12/26 11:49:05;;;;;;;9.27;6.75;;;4.10;78.10;;;;;;6320849;28;20032;-74
2020/12/26 11:52:06;;;;;;;9.60;6.20;;;4.60;78.80;;;;;;6287723;28;20028;-77
2020/12/26 11:55:07;;;;;;;9.43;6.35;;;4.00;92.60;;;;;;6321797;28;20032;-77
2020/12/26 11:58:07;;;;;;;9.48;6.63;;;4.40;78.90;;;;;;6304468;28;20031;-76
2020/12/26 12:01:08;;;;;;;6.78;5.57;;;4.80;79.60;;;;;;6341793;28;20059;-76
2020/12/26 12:04:08;;;;;;;8.57;5.25;;;4.60;77.40;;;;;;6344331;28;20088;-76
2020/12/26 12:07:11;;;;;;;6.95;5.38;;;5.10;76.10;;;;;;6346393;28;20399;-76
2020/12/26 12:10:11;;;;;;;7.88;5.25;;;5.50;74.60;;;;;;6346263;28;20126;-76
2020/12/26 12:13:12;;;;;;;9.15;5.00;;;5.60;73.10;;;;;;6346415;28;20019;-76
2020/12/26 12:16:13;;;;;;;6.55;4.45;;;5.80;72.20;;;;;;6346698;28;20438;-76
2020/12/26 12:19:14;;;;;;;7.40;4.15;;;5.70;70.50;;;;;;6328791;28;20024;-76
2020/12/26 12:22:14;;;;;;;12.90;5.10;;;6.30;67.30;;;;;;6345920;28;20027;-75
2020/12/26 12:25:15;;;;;;;5.22;3.88;;;6.20;92.90;;;;;;6347364;28;20342;-76
2020/12/26 12:28:16;;;;;;;5.35;3.58;;;6.00;78.20;;;;;;6346814;28;20107;-75
2020/12/26 12:31:16;;;;;;;9.20;4.10;;;5.90;91.30;;;;;;6346085;28;20389;-76
2020/12/26 12:34:17;;;;;;;10.25;4.35;;;5.60;90.90;;;;;;6336866;28;20027;-76
2020/12/26 12:37:17;;;;;;;6.75;3.80;;;5.80;90.20;;;;;;6328255;28;20115;-76
2020/12/26 12:40:18;;;;;;;5.55;4.10;;;5.50;90.10;;;;;;6328955;28;20059;-77
2020/12/26 12:43:19;;;;;;;7.07;4.38;;;;;;;;;;6343612;28;20403;-76
2020/12/26 12:46:20;;;;;;;22.45;9.23;;;5.60;96.00;;;;;;6344039;28;20028;-76
2020/12/26 12:49:20;;;;;;;8.18;4.97;;;5.70;96.00;;;;;;6341304;28;20020;-76
2020/12/26 12:52:22;;;;;;;7.93;5.18;;;;;;;;;;6347159;28;20031;-77
2020/12/26 12:55:22;;;;;;;11.68;4.93;;;5.70;91.50;;;;;;6345392;28;20068;-77
2020/12/26 12:58:23;;;;;;;8.70;5.00;;;5.50;92.20;;;;;;6350289;28;20469;-77
2020/12/26 13:01:23;;;;;;;7.22;5.03;;;5.40;87.40;;;;;;6373845;27;20050;-76
2020/12/26 13:04:24;;;;;;;8.43;4.88;;;;;;;;;;6340785;27;20019;-78
2020/12/26 13:07:25;;;;;;;7.97;4.90;;;5.30;93.90;;;;;;6357864;27;20026;-76
2020/12/26 13:10:26;;;;;;;12.05;5.18;;;;;;;;;;6376433;27;20031;-76
2020/12/26 13:13:27;;;;;;;10.65;4.95;;;;;;;;;;6377206;27;20027;-76
2020/12/26 13:16:27;;;;;;;6.55;5.07;;;5.30;77.60;;;;;;6357767;27;20027;-77
2020/12/26 13:19:28;;;;;;;9.80;5.15;;;5.30;68.70;;;;;;6358245;27;20031;-77
2020/12/26 13:22:29;;;;;;;14.98;6.28;;;5.40;70.10;;;;;;6358103;27;20023;-76
2020/12/26 13:25:29;;;;;;;8.27;5.28;;;5.20;68.50;;;;;;6376533;27;20027;-77
2020/12/26 13:28:30;;;;;;;8.43;5.95;;;4.90;87.40;;;;;;6376106;27;20070;-76
2020/12/26 13:31:34;;;;;;;7.70;4.60;;;5.10;69.40;;;;;;6376397;27;20521;-76
2020/12/26 13:34:35;;;;;;;8.73;5.38;;;5.40;68.30;;;;;;6376048;27;20047;-76
2020/12/26 13:37:35;;;;;;;9.93;5.15;;;5.20;67.00;;;;;;6376233;27;20505;-76
2020/12/26 13:40:36;;;;;;;9.00;5.85;;;4.60;67.60;;;;;;6376181;27;20027;-76
2020/12/26 13:43:37;;;;;;;7.72;5.32;;;4.60;68.80;;;;;;6375617;27;20027;-76
2020/12/26 13:46:37;;;;;;;11.40;5.00;;;4.80;69.50;;;;;;6375857;27;20066;-76
2020/12/26 13:49:38;;;;;;;8.10;5.80;;;4.40;71.30;;;;;;6375563;27;20035;-76
2020/12/26 13:52:38;;;;;;;8.65;4.97;;;4.30;70.80;;;;;;6357495;27;20030;-76
2020/12/26 13:55:39;;;;;;;11.18;4.63;;;5.30;71.40;;;;;;6375524;27;20027;-76
2020/12/26 13:58:39;;;;;;;8.80;5.13;;;4.50;70.40;;;;;;6375264;27;20029;-77
2020/12/26 14:01:44;;;;;;;9.32;4.75;;;3.80;71.10;;;;;;6375554;27;20022;-76
2020/12/26 14:04:44;;;;;;;7.82;4.97;;;4.30;70.70;;;;;;6375497;27;20098;-76
2020/12/26 14:07:45;;;;;;;7.82;4.80;;;3.70;90.20;;;;;;6375629;27;20057;-76
2020/12/26 14:10:45;;;;;;;6.78;4.82;;;4.70;72.90;;;;;;6375386;27;20042;-77
2020/12/26 14:13:46;;;;;;;7.53;5.38;;;5.10;72.60;;;;;;6375193;27;20023;-76
2020/12/26 14:16:47;;;;;;;12.07;5.70;;;3.60;71.30;;;;;;6375122;27;20031;-77
2020/12/26 14:19:47;;;;;;;11.63;4.90;;;4.00;71.10;;;;;;6375017;27;20398;-76
2020/12/26 14:22:48;;;;;;;6.03;4.57;;;3.70;71.00;;;;;;6356653;27;20019;-77
2020/12/26 14:25:49;;;;;;;12.82;7.85;;;3.60;71.40;;;;;;6375432;27;20019;-77
2020/12/26 14:28:49;;;;;;;11.55;6.10;;;3.90;72.30;;;;;;6375071;27;20025;-77
2020/12/26 14:31:50;;;;;;;8.07;5.10;;;3.70;73.40;;;;;;6374702;27;20453;-76
2020/12/26 14:34:50;;;;;;;9.25;4.93;;;3.80;72.70;;;;;;6374578;27;20141;-76
2020/12/26 14:37:51;;;;;;;7.10;5.28;;;3.70;72.10;;;;;;6374550;27;20075;-76
2020/12/26 14:40:51;;;;;;;6.78;5.25;;;4.10;73.90;;;;;;6374423;27;20023;-77
2020/12/26 14:43:52;;;;;;;6.70;5.15;;;4.50;74.60;;;;;;6374343;27;20022;-76
2020/12/26 14:46:53;;;;;;;7.22;5.72;;;3.60;74.30;;;;;;6374642;27;20519;-76
2020/12/26 14:49:53;;;;;;;5.43;4.10;;;4.10;76.70;;;;;;6374131;27;20043;-76
2020/12/26 14:52:54;;;;;;;5.47;3.75;;;4.70;75.70;;;;;;6374342;27;20023;-76
2020/12/26 14:55:54;;;;;;;7.32;4.20;;;4.00;75.80;;;;;;6374057;27;20342;-76
2020/12/26 14:58:55;;;;;;;4.60;3.55;;;3.60;77.20;;;;;;6373937;27;20445;-76
2020/12/26 15:01:56;;;;;;;3.63;3.33;;;3.70;76.70;;;;;;6374526;27;20034;-77
2020/12/26 15:04:56;;;;;;;4.50;3.65;;;2.60;76.50;;;;;;6373954;27;20029;-75
2020/12/26 15:07:57;;;;;;;7.13;2.90;;;2.00;92.00;;;;;;6364247;27;20047;-75
2020/12/26 15:10:58;;;;;;;6.15;3.28;;;2.00;76.50;;;;;;6335967;27;20040;-77
2020/12/26 15:13:59;;;;;;;5.72;3.95;;;2.00;77.50;;;;;;6349710;27;20501;-78
2020/12/26 15:16:59;;;;;;;9.27;4.32;;;2.00;78.00;;;;;;6321590;27;20027;-78
2020/12/26 15:20:00;;;;;;;6.50;4.57;;;1.80;80.80;;;;;;6355572;27;20019;-77
2020/12/26 15:23:01;;;;;;;9.35;5.47;;;1.50;93.50;;;;;;6338880;27;20403;-76
2020/12/26 15:26:01;;;;;;;7.07;4.25;;;1.90;81.60;;;;;;6373660;27;20027;-76
2020/12/26 15:29:02;;;;;;;9.15;4.57;;;3.70;86.40;;;;;;6343512;27;20847;-76
2020/12/26 15:32:03;;;;;;;7.28;4.82;;;1.70;93.00;;;;;;6340922;27;20062;-77
2020/12/26 15:35:03;;;;;;;6.13;4.13;;;1.30;99.80;;;;;;6324222;27;20020;-76
2020/12/26 15:38:04;;;;;;;7.38;4.45;;;3.10;82.20;;;;;;6342721;27;20019;-78
2020/12/26 15:41:05;;;;;;;6.68;4.30;;;1.10;93.90;;;;;;6332428;28;20077;-77
2020/12/26 15:44:06;;;;;;;7.88;4.90;;;1.10;94.10;;;;;;6315577;28;20454;-79
2020/12/26 15:47:06;;;;;;;10.63;5.25;;;1.10;94.30;;;;;;6324716;27;20026;-78
2020/12/26 15:50:07;;;;;;;6.18;5.25;;;0.70;94.40;;;;;;6361245;27;20051;-77
2020/12/26 15:53:08;;;;;;;9.15;5.53;;;;;;;;;;6349903;27;20030;-79